createdAt,value
2023-05-24T00:00:22.822Z,5.30
2023-05-24T00:02:49.962Z,5.90
2023-05-24T00:05:18.722Z,5.30
2023-05-24T00:07:45.693Z,5.13
2023-05-24T00:10:12.533Z,6.10
2023-05-24T00:12:39.222Z,5.70
2023-05-24T00:15:06.621Z,5.67
2023-05-24T00:17:34.759Z,5.73
2023-05-24T00:20:01.540Z,6.23
2023-05-24T00:22:28.250Z,6.50
2023-05-24T00:24:54.928Z,5.27
2023-05-24T00:27:21.587Z,5.80
2023-05-24T00:29:48.185Z,6.00
2023-05-24T00:32:15.052Z,5.93
2023-05-24T00:34:41.804Z,5.53
2023-05-24T00:37:08.537Z,6.07
2023-05-24T00:39:35.343Z,5.47
2023-05-24T00:42:02.395Z,5.60
2023-05-24T00:44:29.594Z,5.73
2023-05-24T00:46:56.734Z,5.70
2023-05-24T00:49:23.850Z,5.93
2023-05-24T00:51:52.460Z,5.53
2023-05-24T00:54:19.302Z,5.83
2023-05-24T00:56:47.445Z,5.53
2023-05-24T00:59:14.585Z,5.80
2023-05-24T01:01:42.048Z,5.40
2023-05-24T01:04:08.920Z,5.00
2023-05-24T01:06:50.225Z,5.93
2023-05-24T01:09:30.833Z,5.40
2023-05-24T01:12:25.793Z,5.50
2023-05-24T01:15:05.020Z,5.03
2023-05-24T01:18:05.524Z,5.47
2023-05-24T01:20:34.341Z,5.50
2023-05-24T01:23:07.295Z,5.50
2023-05-24T01:25:52.535Z,5.47
2023-05-24T01:28:21.265Z,5.80
2023-05-24T01:30:48.420Z,5.60
2023-05-24T01:33:16.073Z,5.50
2023-05-24T01:35:42.878Z,4.77
2023-05-24T01:38:13.234Z,5.13
2023-05-24T01:40:41.711Z,5.60
2023-05-24T01:43:36.112Z,5.40
2023-05-24T01:46:21.495Z,5.03
2023-05-24T01:49:06.754Z,4.67
2023-05-24T01:51:41.442Z,5.60
2023-05-24T01:54:12.359Z,4.77
2023-05-24T01:56:41.173Z,5.17
2023-05-24T01:59:09.022Z,5.23
2023-05-24T02:01:35.947Z,4.83
2023-05-24T02:04:03.197Z,5.27
2023-05-24T02:06:29.898Z,5.30
2023-05-24T02:08:56.572Z,4.87
2023-05-24T02:11:23.431Z,5.00
2023-05-24T02:13:50.142Z,5.13
2023-05-24T02:16:18.175Z,5.23
2023-05-24T02:18:46.767Z,4.73
2023-05-24T02:21:13.953Z,5.10
2023-05-24T02:23:43.488Z,4.43
2023-05-24T02:26:12.615Z,4.87
2023-05-24T02:28:39.296Z,5.00
2023-05-24T02:31:06.307Z,4.83
2023-05-24T02:33:33.803Z,4.50
2023-05-24T02:36:00.727Z,4.67
2023-05-24T02:38:27.450Z,4.40
2023-05-24T02:40:54.150Z,4.57
2023-05-24T02:43:20.808Z,4.73
2023-05-24T02:45:47.596Z,5.07
2023-05-24T02:48:14.291Z,4.60
2023-05-24T02:50:41.133Z,4.50
2023-05-24T02:53:08.789Z,3.93
2023-05-24T02:55:35.513Z,4.60
2023-05-24T02:58:02.918Z,4.17
2023-05-24T03:00:31.040Z,3.97
2023-05-24T03:03:02.618Z,3.87
2023-05-24T03:05:29.546Z,4.27
2023-05-24T03:07:56.744Z,3.73
2023-05-24T03:10:23.569Z,3.97
2023-05-24T03:12:50.347Z,3.80
2023-05-24T03:15:17.091Z,4.00
2023-05-24T03:17:43.774Z,3.90
2023-05-24T03:20:11.722Z,4.57
2023-05-24T03:22:38.884Z,3.93
2023-05-24T03:25:08.727Z,3.70
2023-05-24T03:27:36.590Z,3.80
2023-05-24T03:30:03.749Z,4.30
2023-05-24T03:32:35.138Z,3.43
2023-05-24T03:35:02.643Z,3.23
2023-05-24T03:37:29.421Z,3.93
2023-05-24T03:39:56.062Z,4.20
2023-05-24T03:42:43.006Z,3.70
2023-05-24T03:45:10.890Z,3.80
2023-05-24T03:47:38.193Z,3.80
2023-05-24T03:50:05.418Z,3.70
2023-05-24T03:52:32.140Z,3.30
2023-05-24T03:54:58.825Z,3.80
2023-05-24T03:57:25.564Z,4.07
2023-05-24T03:59:52.731Z,4.07
2023-05-24T04:02:19.442Z,3.70
2023-05-24T04:04:46.281Z,3.97
2023-05-24T04:07:15.367Z,3.70
2023-05-24T04:09:42.878Z,3.77
2023-05-24T04:12:09.652Z,4.10
2023-05-24T04:14:36.402Z,3.30
2023-05-24T04:17:05.741Z,3.53
2023-05-24T04:19:32.567Z,3.80
2023-05-24T04:21:59.694Z,3.30
2023-05-24T04:24:26.492Z,3.30
2023-05-24T04:26:53.289Z,3.50
2023-05-24T04:29:20.021Z,3.83
2023-05-24T04:31:48.905Z,3.20
2023-05-24T04:34:15.775Z,3.53
2023-05-24T04:36:42.863Z,3.67
2023-05-24T04:39:11.411Z,3.27
2023-05-24T04:41:38.681Z,3.47
2023-05-24T04:44:05.424Z,3.30
2023-05-24T04:46:32.101Z,2.97
2023-05-24T04:48:59.128Z,3.07
2023-05-24T04:51:26.040Z,3.17
2023-05-24T04:53:52.698Z,3.77
2023-05-24T04:56:19.600Z,3.73
2023-05-24T04:58:47.616Z,3.10
2023-05-24T05:01:14.439Z,3.20
2023-05-24T05:03:41.512Z,3.30
2023-05-24T05:06:08.335Z,3.43
2023-05-24T05:08:34.991Z,3.30
2023-05-24T05:11:02.830Z,2.93
2023-05-24T05:13:29.569Z,3.60
2023-05-24T05:15:56.257Z,3.57
2023-05-24T05:18:22.881Z,3.30
2023-05-24T05:20:49.559Z,3.33
2023-05-24T05:23:16.368Z,3.23
2023-05-24T05:25:43.105Z,3.63
2023-05-24T05:28:09.850Z,3.10
2023-05-24T05:30:36.621Z,2.87
2023-05-24T05:33:05.882Z,2.90
2023-05-24T05:35:33.350Z,3.20
2023-05-24T05:38:00.083Z,2.77
2023-05-24T05:40:26.772Z,3.13
2023-05-24T05:42:53.566Z,2.60
2023-05-24T05:45:20.357Z,2.60
2023-05-24T05:47:47.125Z,2.70
2023-05-24T05:50:13.894Z,2.80
2023-05-24T05:52:41.058Z,2.67
2023-05-24T05:55:08.768Z,2.43
2023-05-24T05:57:35.539Z,2.40
2023-05-24T06:00:02.566Z,2.13
2023-05-24T06:02:38.746Z,2.77
2023-05-24T06:05:05.904Z,2.67
2023-05-24T06:07:32.856Z,2.30
2023-05-24T06:09:59.667Z,2.70
2023-05-24T06:12:26.735Z,2.23
2023-05-24T06:14:54.240Z,2.63
2023-05-24T06:17:24.222Z,2.43
2023-05-24T06:19:53.673Z,2.53
2023-05-24T06:22:21.587Z,2.07
2023-05-24T06:24:49.229Z,2.20
2023-05-24T06:27:15.977Z,2.57
2023-05-24T06:29:42.698Z,2.03
2023-05-24T06:32:09.395Z,2.40
2023-05-24T06:34:36.136Z,2.20
2023-05-24T06:37:04.157Z,2.30
2023-05-24T06:39:30.925Z,2.30
2023-05-24T06:41:57.689Z,2.10
2023-05-24T06:44:31.918Z,2.40
2023-05-24T06:46:58.744Z,2.07
2023-05-24T06:49:25.833Z,2.10
2023-05-24T06:51:52.917Z,2.40
2023-05-24T06:54:19.890Z,1.90
2023-05-24T06:56:46.702Z,2.10
2023-05-24T06:59:13.481Z,2.23
2023-05-24T07:01:42.729Z,2.40
2023-05-24T07:04:09.969Z,2.40
2023-05-24T07:06:37.629Z,2.40
2023-05-24T07:09:05.031Z,1.90
2023-05-24T07:11:32.074Z,1.80
2023-05-24T07:13:58.866Z,2.23
2023-05-24T07:16:25.591Z,1.43
2023-05-24T07:18:52.403Z,1.90
2023-05-24T07:21:19.111Z,2.00
2023-05-24T07:23:46.039Z,1.97
2023-05-24T07:26:12.815Z,1.90
2023-05-24T07:28:40.502Z,1.97
2023-05-24T07:31:09.903Z,2.67
2023-05-24T07:33:37.922Z,4.00
2023-05-24T07:36:07.112Z,2.03
2023-05-24T07:38:34.867Z,2.17
2023-05-24T07:41:06.328Z,2.03
2023-05-24T07:43:33.324Z,1.90
2023-05-24T07:46:00.055Z,1.57
2023-05-24T07:48:26.971Z,2.07
2023-05-24T07:50:55.005Z,1.80
2023-05-24T07:53:22.960Z,1.57
2023-05-24T07:55:50.405Z,1.77
2023-05-24T07:58:17.062Z,1.60
2023-05-24T08:00:43.755Z,1.70
2023-05-24T08:03:13.447Z,1.57
2023-05-24T08:05:41.597Z,1.60
2023-05-24T08:08:08.446Z,1.30
2023-05-24T08:10:35.182Z,1.43
2023-05-24T08:13:01.943Z,1.63
2023-05-24T08:15:28.873Z,1.60
2023-05-24T08:17:55.571Z,1.80
2023-05-24T08:20:22.359Z,1.90
2023-05-24T08:22:54.830Z,1.30
2023-05-24T08:25:21.529Z,1.40
2023-05-24T08:27:48.233Z,1.23
2023-05-24T08:30:15.057Z,1.70
2023-05-24T08:32:41.961Z,1.57
2023-05-24T08:35:20.291Z,1.40
2023-05-24T08:37:48.957Z,1.50
2023-05-24T08:40:15.872Z,1.30
2023-05-24T08:42:42.810Z,1.20
2023-05-24T08:45:13.076Z,1.37
2023-05-24T08:47:40.693Z,1.47
2023-05-24T08:50:08.611Z,1.50
2023-05-24T08:52:36.494Z,1.30
2023-05-24T08:55:06.862Z,1.47
2023-05-24T08:57:35.736Z,1.60
2023-05-24T09:00:02.549Z,1.40
2023-05-24T09:02:32.313Z,1.27
2023-05-24T09:05:00.170Z,1.90
2023-05-24T09:07:33.045Z,1.50
2023-05-24T09:10:08.516Z,1.50
2023-05-24T09:12:40.538Z,1.17
2023-05-24T09:15:08.887Z,1.50
2023-05-24T09:17:37.353Z,1.27
2023-05-24T09:20:10.002Z,1.67
2023-05-24T09:22:41.836Z,1.40
2023-05-24T09:25:11.327Z,1.50
2023-05-24T09:27:40.567Z,1.40
2023-05-24T09:30:11.019Z,1.30
2023-05-24T09:32:39.801Z,1.50
2023-05-24T09:35:10.419Z,1.60
2023-05-24T09:37:38.777Z,1.63
2023-05-24T09:40:19.355Z,1.60
2023-05-24T09:42:52.755Z,1.52
2023-05-24T09:45:21.319Z,1.80
2023-05-24T09:47:48.284Z,1.33
2023-05-24T09:50:17.436Z,1.73
2023-05-24T09:52:45.166Z,1.52
2023-05-24T09:55:20.188Z,1.63
2023-05-24T09:58:05.383Z,1.80
2023-05-24T10:00:41.331Z,1.63
2023-05-24T10:03:12.948Z,1.45
2023-05-24T10:05:44.420Z,1.52
2023-05-24T10:08:11.989Z,1.60
2023-05-24T10:10:38.619Z,1.52
2023-05-24T10:13:05.333Z,1.70
2023-05-24T10:15:32.110Z,1.75
2023-05-24T10:18:10.425Z,1.73
2023-05-24T10:20:41.134Z,1.80
2023-05-24T10:23:10.397Z,1.60
2023-05-24T10:25:42.912Z,1.40
2023-05-24T10:28:12.960Z,1.60
2023-05-24T10:30:52.817Z,1.65
2023-05-24T10:33:21.395Z,1.60
2023-05-24T10:35:48.562Z,1.50
2023-05-24T10:38:15.486Z,1.73
2023-05-24T10:40:43.610Z,1.90
2023-05-24T10:43:10.439Z,2.17
2023-05-24T10:45:41.328Z,1.70
2023-05-24T10:48:28.270Z,1.50
2023-05-24T10:50:55.557Z,1.40
2023-05-24T10:53:26.266Z,1.40
2023-05-24T10:55:59.153Z,2.10
2023-05-24T10:58:58.147Z,1.40
2023-05-24T11:01:27.710Z,1.65
2023-05-24T11:04:17.061Z,1.73
2023-05-24T11:07:03.753Z,2.00
2023-05-24T11:09:31.738Z,1.58
2023-05-24T11:12:04.203Z,1.67
2023-05-24T11:14:32.110Z,1.38
2023-05-24T11:17:00.342Z,1.65
2023-05-24T11:19:36.180Z,1.42
2023-05-24T11:22:14.949Z,1.63
2023-05-24T11:24:42.704Z,1.67
2023-05-24T11:27:11.916Z,1.40
2023-05-24T11:29:43.443Z,1.60
2023-05-24T11:32:14.277Z,1.48
2023-05-24T11:34:42.021Z,1.70
2023-05-24T11:37:09.395Z,1.55
2023-05-24T11:39:37.482Z,1.60
2023-05-24T11:42:05.127Z,1.60
2023-05-24T11:44:32.573Z,1.42
2023-05-24T11:47:03.399Z,1.60
2023-05-24T11:49:30.280Z,1.95
2023-05-24T11:51:58.595Z,1.70
2023-05-24T11:54:27.040Z,1.52
2023-05-24T11:56:54.776Z,1.50
2023-05-24T11:59:26.598Z,1.60
2023-05-24T12:02:02.579Z,1.58
2023-05-24T12:04:30.466Z,1.60
2023-05-24T12:06:58.021Z,1.60
2023-05-24T12:09:25.571Z,1.50
2023-05-24T12:11:53.465Z,1.50
2023-05-24T12:14:27.620Z,1.48
2023-05-24T12:16:56.302Z,1.70
2023-05-24T12:19:32.877Z,1.80
2023-05-24T12:22:06.803Z,1.83
2023-05-24T12:24:34.247Z,2.00
2023-05-24T12:27:03.022Z,2.00
2023-05-24T12:29:37.741Z,1.88
2023-05-24T12:32:04.980Z,1.40
2023-05-24T12:34:32.462Z,1.42
2023-05-24T12:36:59.924Z,2.10
2023-05-24T12:39:32.082Z,1.97
2023-05-24T12:42:01.534Z,1.67
2023-05-24T12:44:33.942Z,1.77
2023-05-24T12:47:03.512Z,1.83
2023-05-24T12:49:31.868Z,1.80
2023-05-24T12:51:58.934Z,2.17
2023-05-24T12:54:27.834Z,2.03
2023-05-24T12:56:56.898Z,2.00
2023-05-24T12:59:25.538Z,1.80
2023-05-24T13:01:52.817Z,2.33
2023-05-24T13:04:21.915Z,2.00
2023-05-24T13:06:49.361Z,1.97
2023-05-24T13:09:21.014Z,1.63
2023-05-24T13:11:47.758Z,2.20
2023-05-24T13:14:16.479Z,2.17
2023-05-24T13:16:44.290Z,1.90
2023-05-24T13:19:11.893Z,2.00
2023-05-24T13:21:39.129Z,1.90
2023-05-24T13:24:06.927Z,2.30
2023-05-24T13:26:37.909Z,2.20
2023-05-24T13:29:39.271Z,2.20
2023-05-24T13:31:55.480Z,2.10
2023-05-24T13:34:26.186Z,1.80
2023-05-24T13:36:54.130Z,2.37
2023-05-24T13:39:22.290Z,2.30
2023-05-24T13:41:49.702Z,2.70
2023-05-24T13:44:16.958Z,2.57
2023-05-24T13:46:43.931Z,2.30
2023-05-24T13:49:11.842Z,2.10
2023-05-24T13:51:39.067Z,2.43
2023-05-24T13:54:07.429Z,2.40
2023-05-24T13:56:35.017Z,2.43
2023-05-24T13:59:03.759Z,2.53
2023-05-24T14:01:31.300Z,2.80
2023-05-24T14:03:58.763Z,2.87
2023-05-24T14:06:25.525Z,2.40
2023-05-24T14:08:52.440Z,2.67
2023-05-24T14:11:19.706Z,2.70
2023-05-24T14:16:16.877Z,2.70
2023-05-24T14:18:43.914Z,2.30
2023-05-24T14:21:10.713Z,2.93
2023-05-24T14:23:37.543Z,2.70
2023-05-24T14:26:04.294Z,2.80
2023-05-24T14:28:31.196Z,2.53
2023-05-24T14:30:57.911Z,3.20
2023-05-24T14:33:24.727Z,3.30
2023-05-24T14:35:51.726Z,2.60
2023-05-24T14:38:18.660Z,2.77
2023-05-24T14:40:48.036Z,3.00
2023-05-24T14:43:15.063Z,2.80
2023-05-24T14:45:42.921Z,3.10
2023-05-24T14:48:11.585Z,3.33
2023-05-24T14:50:39.854Z,3.57
2023-05-24T14:53:12.996Z,2.97
2023-05-24T14:55:42.198Z,2.87
2023-05-24T14:58:11.412Z,3.23
2023-05-24T15:00:38.998Z,2.90
2023-05-24T15:03:06.254Z,3.30
2023-05-24T15:05:33.834Z,3.20
2023-05-24T15:08:00.930Z,2.90
2023-05-24T15:10:27.790Z,3.37
2023-05-24T15:12:54.523Z,3.17
2023-05-24T15:15:22.501Z,3.27
2023-05-24T15:17:49.473Z,2.60
2023-05-24T15:20:16.350Z,3.00
2023-05-24T15:22:43.233Z,2.73
2023-05-24T15:25:10.654Z,3.00
2023-05-24T15:27:37.849Z,2.83
2023-05-24T15:30:05.194Z,3.13
2023-05-24T15:32:32.243Z,3.20
2023-05-24T15:35:00.386Z,3.40
2023-05-24T15:37:27.395Z,2.97
2023-05-24T15:39:54.587Z,3.40
2023-05-24T15:42:23.538Z,3.20
2023-05-24T15:44:50.594Z,3.17
2023-05-24T15:47:18.671Z,3.30
2023-05-24T15:49:47.541Z,3.33
2023-05-24T15:52:14.302Z,3.13
2023-05-24T15:54:41.174Z,2.83
2023-05-24T15:57:07.926Z,2.73
2023-05-24T15:59:36.842Z,3.17
2023-05-24T16:02:04.005Z,2.90
2023-05-24T16:04:30.796Z,3.63
2023-05-24T16:06:57.700Z,2.97
2023-05-24T16:09:24.489Z,3.33
2023-05-24T16:11:51.648Z,3.20
2023-05-24T16:14:18.423Z,4.13
2023-05-24T16:16:45.244Z,3.70
2023-05-24T16:19:12.154Z,4.40
2023-05-24T16:21:39.156Z,4.80
2023-05-24T16:24:06.149Z,4.33
2023-05-24T16:26:33.102Z,4.50
2023-05-24T16:28:59.980Z,4.80
2023-05-24T16:31:26.838Z,4.33
2023-05-24T16:33:53.901Z,4.67
2023-05-24T16:36:21.237Z,4.30
2023-05-24T16:38:48.121Z,4.40
2023-05-24T16:41:14.888Z,3.43
2023-05-24T16:43:41.683Z,4.17
2023-05-24T16:46:08.597Z,4.07
2023-05-24T16:48:35.518Z,3.70
2023-05-24T16:51:02.754Z,4.13
2023-05-24T16:53:29.841Z,3.43
2023-05-24T16:55:57.873Z,3.83
2023-05-24T16:58:28.034Z,3.83
2023-05-24T17:00:55.068Z,3.57
2023-05-24T17:03:27.624Z,4.53
2023-05-24T17:05:56.713Z,3.33
2023-05-24T17:08:25.728Z,4.07
2023-05-24T17:10:56.167Z,3.27
2023-05-24T17:13:23.804Z,3.03
2023-05-24T17:15:53.890Z,3.10
2023-05-24T17:18:27.731Z,3.00
2023-05-24T17:21:02.261Z,2.63
2023-05-24T17:23:33.302Z,3.23
2023-05-24T17:26:01.402Z,3.03
2023-05-24T17:28:28.551Z,3.10
2023-05-24T17:31:00.961Z,3.40
2023-05-24T17:33:31.234Z,3.20
2023-05-24T17:35:58.180Z,3.30
2023-05-24T17:38:25.317Z,3.30
2023-05-24T17:40:59.491Z,3.30
2023-05-24T17:43:32.142Z,3.17
2023-05-24T17:46:04.234Z,3.40
2023-05-24T17:48:41.070Z,3.00
2023-05-24T17:51:09.374Z,3.83
2023-05-24T17:53:38.041Z,3.40
2023-05-24T17:56:05.658Z,3.60
2023-05-24T17:58:36.054Z,3.37
2023-05-24T18:01:08.108Z,3.30
2023-05-24T18:03:39.118Z,2.80
2023-05-24T18:06:07.112Z,2.80
2023-05-24T18:08:37.126Z,3.30
2023-05-24T18:11:10.186Z,3.40
2023-05-24T18:13:38.993Z,3.33
2023-05-24T18:16:10.772Z,3.30
2023-05-24T18:18:37.887Z,3.57
2023-05-24T18:21:05.352Z,3.47
2023-05-24T18:23:34.146Z,3.37
2023-05-24T18:26:03.096Z,3.57
2023-05-24T18:28:30.029Z,3.60
2023-05-24T18:30:56.849Z,3.73
2023-05-24T18:33:23.962Z,3.00
2023-05-24T18:35:50.966Z,2.87
2023-05-24T18:38:17.746Z,3.23
2023-05-24T18:40:44.483Z,3.57
2023-05-24T18:43:11.253Z,3.00
2023-05-24T18:45:38.005Z,3.13
2023-05-24T18:48:06.024Z,3.37
2023-05-24T18:50:32.926Z,3.00
2023-05-24T18:52:59.847Z,3.27
2023-05-24T18:55:26.604Z,3.20
2023-05-24T18:57:53.417Z,2.97
2023-05-24T19:00:22.775Z,3.10
2023-05-24T19:02:49.790Z,3.37
2023-05-24T19:05:16.782Z,3.30
2023-05-24T19:07:43.619Z,3.23
2023-05-24T19:10:10.819Z,2.90
2023-05-24T19:12:37.593Z,2.97
2023-05-24T19:15:04.844Z,2.70
2023-05-24T19:17:32.317Z,2.93
2023-05-24T19:19:59.233Z,3.33
2023-05-24T19:22:27.582Z,3.07
2023-05-24T19:24:55.945Z,2.77
2023-05-24T19:27:23.078Z,2.73
2023-05-24T19:29:50.156Z,3.07
2023-05-24T19:32:17.224Z,3.10
2023-05-24T19:34:44.027Z,3.37
2023-05-24T19:37:10.784Z,3.30
2023-05-24T19:39:37.747Z,2.97
2023-05-24T19:42:04.883Z,3.23
2023-05-24T19:44:31.586Z,3.50
2023-05-24T19:46:58.360Z,3.07
2023-05-24T19:49:25.142Z,2.97
2023-05-24T19:51:52.208Z,2.67
2023-05-24T19:54:19.049Z,2.97
2023-05-24T19:56:49.693Z,3.27
2023-05-24T19:59:17.331Z,3.43
2023-05-24T20:01:44.480Z,3.50
2023-05-24T20:04:12.330Z,3.20
2023-05-24T20:06:39.408Z,3.17
2023-05-24T20:09:06.398Z,3.57
2023-05-24T20:11:33.152Z,3.30
2023-05-24T20:14:00.058Z,3.10
2023-05-24T20:16:27.412Z,3.10
2023-05-24T20:18:54.127Z,3.67
2023-05-24T20:21:21.151Z,3.40
2023-05-24T20:23:49.756Z,3.33
2023-05-24T20:26:16.455Z,3.17
2023-05-24T20:28:43.332Z,3.17
2023-05-24T20:31:10.136Z,3.00
2023-05-24T20:33:38.464Z,2.77
2023-05-24T20:36:05.756Z,3.00
2023-05-24T20:38:32.609Z,3.40
2023-05-24T20:40:59.956Z,3.00
2023-05-24T20:43:26.696Z,3.30
2023-05-24T20:45:54.147Z,2.93
2023-05-24T20:48:21.105Z,2.87
2023-05-24T20:50:48.132Z,2.67
2023-05-24T20:53:14.860Z,3.47
2023-05-24T20:55:41.856Z,3.00
2023-05-24T20:58:08.760Z,3.20
2023-05-24T21:00:36.306Z,3.13
2023-05-24T21:03:04.756Z,2.97
2023-05-24T21:05:31.581Z,3.00
2023-05-24T21:07:58.326Z,2.60
2023-05-24T21:10:27.881Z,2.90
2023-05-24T21:12:54.725Z,2.70
2023-05-24T21:15:21.473Z,2.60
2023-05-24T21:17:48.240Z,3.10
2023-05-24T21:20:15.064Z,2.83
2023-05-24T21:22:42.142Z,2.83
2023-05-24T21:25:09.513Z,2.97
2023-05-24T21:27:36.301Z,3.23
2023-05-24T21:30:03.373Z,3.63
2023-05-24T21:32:31.260Z,3.23
2023-05-24T21:34:58.062Z,2.87
2023-05-24T21:37:25.272Z,3.10
2023-05-24T21:39:52.004Z,3.10
2023-05-24T21:42:18.721Z,2.80
2023-05-24T21:44:45.460Z,2.83
2023-05-24T21:47:12.376Z,3.00
2023-05-24T21:49:39.214Z,3.07
2023-05-24T21:52:05.931Z,3.10
2023-05-24T21:54:32.629Z,2.67
2023-05-24T21:56:59.419Z,3.23
2023-05-24T21:59:26.184Z,2.90
2023-05-24T22:01:52.934Z,2.87
2023-05-24T22:04:19.775Z,3.23
2023-05-24T22:06:46.530Z,2.97
2023-05-24T22:09:13.636Z,2.77
2023-05-24T22:11:41.358Z,3.20
2023-05-24T22:14:08.375Z,3.03
2023-05-24T22:16:35.159Z,2.87
2023-05-24T22:19:03.661Z,3.37
2023-05-24T22:21:33.413Z,3.20
2023-05-24T22:24:00.650Z,3.30
2023-05-24T22:26:30.632Z,3.43
2023-05-24T22:29:00.834Z,2.90
2023-05-24T22:31:29.537Z,3.20
2023-05-24T22:34:00.973Z,2.97
2023-05-24T22:36:35.148Z,3.00
2023-05-24T22:39:01.995Z,3.50
2023-05-24T22:41:28.882Z,3.53
2023-05-24T22:43:56.948Z,2.63
2023-05-24T22:46:24.295Z,2.87
2023-05-24T22:48:52.289Z,3.23
2023-05-24T22:51:22.590Z,2.63
2023-05-24T22:53:49.515Z,3.00
2023-05-24T22:56:17.889Z,2.90
2023-05-24T22:58:44.677Z,2.73
2023-05-24T23:01:11.571Z,2.93
2023-05-24T23:03:38.448Z,3.03
2023-05-24T23:06:05.638Z,2.90
2023-05-24T23:08:32.978Z,2.80
2023-05-24T23:11:00.217Z,3.00
2023-05-24T23:13:33.300Z,3.03
2023-05-24T23:16:00.697Z,2.43
2023-05-24T23:18:27.984Z,2.70
2023-05-24T23:20:56.050Z,2.93
2023-05-24T23:23:23.947Z,2.80
2023-05-24T23:25:51.144Z,3.00
2023-05-24T23:28:17.950Z,3.00
2023-05-24T23:30:44.759Z,2.80
2023-05-24T23:33:11.681Z,3.40
2023-05-24T23:35:39.666Z,2.80
2023-05-24T23:38:06.737Z,3.00
2023-05-24T23:40:34.435Z,2.30
2023-05-24T23:43:01.251Z,2.90
2023-05-24T23:45:28.014Z,3.27
2023-05-24T23:47:55.045Z,2.73
2023-05-24T23:50:22.548Z,3.60
2023-05-24T23:52:49.793Z,2.67
2023-05-24T23:55:17.140Z,2.93
2023-05-24T23:57:45.811Z,3.00
